createdAt,value
2023-04-14T00:01:48.529Z,58.70
2023-04-14T00:04:15.759Z,58.70
2023-04-14T00:06:43.020Z,58.60
2023-04-14T00:09:10.535Z,58.60
2023-04-14T00:11:37.324Z,58.60
2023-04-14T00:14:04.138Z,58.50
2023-04-14T00:16:31.299Z,58.50
2023-04-14T00:18:58.259Z,58.50
2023-04-14T00:21:26.729Z,58.60
2023-04-14T00:23:53.499Z,58.50
2023-04-14T00:26:20.349Z,58.40
2023-04-14T00:28:47.217Z,58.50
2023-04-14T00:31:14.039Z,58.50
2023-04-14T00:33:40.802Z,58.10
2023-04-14T00:36:07.800Z,58.40
2023-04-14T00:38:34.568Z,57.30
2023-04-14T00:41:01.573Z,58.50
2023-04-14T00:43:28.307Z,58.50
2023-04-14T00:45:55.572Z,58.50
2023-04-14T00:48:22.682Z,58.50
2023-04-14T00:50:49.629Z,58.50
2023-04-14T00:53:16.487Z,58.50
2023-04-14T00:55:43.470Z,58.50
2023-04-14T00:58:11.080Z,58.50
2023-04-14T01:00:37.953Z,58.60
2023-04-14T01:03:05.858Z,58.60
2023-04-14T01:05:34.141Z,58.70
2023-04-14T01:08:03.648Z,58.60
2023-04-14T01:10:41.052Z,58.80
2023-04-14T01:13:35.176Z,58.70
2023-04-14T01:16:14.853Z,58.80
2023-04-14T01:19:05.291Z,58.70
2023-04-14T01:21:38.568Z,58.80
2023-04-14T01:24:36.982Z,58.80
2023-04-14T01:27:33.999Z,58.90
2023-04-14T01:30:32.441Z,58.80
2023-04-14T01:33:05.737Z,58.90
2023-04-14T01:35:49.398Z,58.80
2023-04-14T01:38:27.316Z,58.90
2023-04-14T01:41:00.609Z,58.50
2023-04-14T01:43:32.006Z,58.90
2023-04-14T01:46:06.994Z,58.90
2023-04-14T01:48:34.798Z,59.10
2023-04-14T01:51:05.762Z,59.00
2023-04-14T01:53:37.095Z,59.10
2023-04-14T01:56:07.770Z,59.10
2023-04-14T01:58:36.313Z,59.20
2023-04-14T02:01:05.310Z,59.20
2023-04-14T02:03:33.705Z,59.20
2023-04-14T02:06:03.903Z,59.30
2023-04-14T02:08:33.726Z,59.40
2023-04-14T02:11:02.482Z,59.90
2023-04-14T02:13:32.757Z,59.40
2023-04-14T02:16:01.880Z,59.50
2023-04-14T02:18:31.624Z,59.50
2023-04-14T02:21:02.524Z,59.10
2023-04-14T02:23:29.405Z,59.60
2023-04-14T02:26:07.301Z,59.60
2023-04-14T02:28:43.427Z,59.80
2023-04-14T02:31:16.599Z,59.80
2023-04-14T02:33:45.718Z,59.80
2023-04-14T02:36:22.487Z,59.80
2023-04-14T02:38:59.400Z,59.80
2023-04-14T02:41:32.700Z,60.00
2023-04-14T02:44:41.997Z,59.90
2023-04-14T02:47:13.544Z,59.80
2023-04-14T02:49:46.747Z,60.00
2023-04-14T02:52:19.144Z,60.10
2023-04-14T02:54:48.996Z,60.20
2023-04-14T02:57:17.509Z,60.20
2023-04-14T02:59:47.211Z,60.30
2023-04-14T03:02:16.480Z,60.40
2023-04-14T03:04:44.467Z,60.40
2023-04-14T03:07:14.640Z,60.50
2023-04-14T03:09:42.770Z,60.50
2023-04-14T03:12:13.773Z,60.60
2023-04-14T03:14:44.145Z,60.90
2023-04-14T03:17:14.687Z,60.60
2023-04-14T03:19:43.853Z,61.10
2023-04-14T03:22:13.598Z,61.10
2023-04-14T03:27:17.468Z,60.80
2023-04-14T03:29:50.871Z,62.00
2023-04-14T03:32:22.290Z,61.90
2023-04-14T03:34:56.732Z,61.90
2023-04-14T03:37:27.423Z,62.20
2023-04-14T03:40:00.469Z,62.40
2023-04-14T03:42:29.427Z,62.10
2023-04-14T03:45:00.393Z,62.20
2023-04-14T03:47:31.426Z,61.80
2023-04-14T03:50:01.349Z,62.30
2023-04-14T03:52:34.018Z,62.40
2023-04-14T03:55:06.496Z,62.60
2023-04-14T03:57:37.178Z,62.50
2023-04-14T04:00:08.493Z,62.50
2023-04-14T04:02:36.770Z,62.60
2023-04-14T04:05:06.114Z,62.70
2023-04-14T04:07:34.978Z,62.80
2023-04-14T04:10:04.869Z,62.80
2023-04-14T04:12:33.185Z,62.70
2023-04-14T04:15:01.300Z,62.80
2023-04-14T04:17:33.314Z,62.80
2023-04-14T04:20:07.193Z,62.80
2023-04-14T04:22:38.903Z,63.00
2023-04-14T04:25:07.483Z,63.00
2023-04-14T04:27:34.937Z,62.70
2023-04-14T04:30:02.141Z,62.70
2023-04-14T04:32:29.715Z,62.80
2023-04-14T04:34:57.528Z,62.60
2023-04-14T04:37:28.696Z,62.70
2023-04-14T04:39:58.586Z,62.70
2023-04-14T04:42:25.393Z,62.80
2023-04-14T04:44:52.479Z,62.80
2023-04-14T04:47:19.217Z,62.80
2023-04-14T04:49:45.961Z,62.80
2023-04-14T04:52:12.754Z,62.80
2023-04-14T04:54:39.520Z,62.80
2023-04-14T04:57:06.280Z,62.80
2023-04-14T04:59:33.281Z,62.80
2023-04-14T05:02:00.056Z,62.90
2023-04-14T05:04:26.890Z,62.80
2023-04-14T05:06:53.750Z,62.80
2023-04-14T05:09:20.493Z,62.70
2023-04-14T05:11:47.233Z,62.60
2023-04-14T05:14:14.039Z,62.80
2023-04-14T05:16:40.907Z,62.80
2023-04-14T05:19:07.999Z,62.80
2023-04-14T05:21:35.509Z,62.10
2023-04-14T05:24:02.344Z,62.00
2023-04-14T05:28:58.917Z,62.30
2023-04-14T05:31:25.923Z,62.80
2023-04-14T05:33:52.677Z,62.20
2023-04-14T05:36:19.432Z,63.00
2023-04-14T05:38:46.462Z,63.20
2023-04-14T05:41:13.225Z,63.20
2023-04-14T05:43:39.992Z,63.70
2023-04-14T05:46:06.763Z,63.30
2023-04-14T05:48:33.807Z,63.40
2023-04-14T05:51:00.843Z,63.40
2023-04-14T05:53:27.827Z,63.60
2023-04-14T05:55:54.617Z,64.50
2023-04-14T05:58:21.637Z,63.80
2023-04-14T06:00:48.409Z,63.80
2023-04-14T06:03:16.455Z,64.00
2023-04-14T06:05:43.855Z,64.60
2023-04-14T06:08:12.229Z,64.20
2023-04-14T06:10:39.054Z,64.40
2023-04-14T06:13:05.853Z,64.50
2023-04-14T06:15:32.754Z,65.00
2023-04-14T06:17:59.490Z,64.90
2023-04-14T06:20:26.305Z,64.80
2023-04-14T06:22:53.084Z,64.80
2023-04-14T06:25:19.871Z,65.10
2023-04-14T06:27:47.172Z,65.20
2023-04-14T06:30:16.910Z,65.20
2023-04-14T06:32:44.073Z,65.30
2023-04-14T06:35:19.073Z,65.20
2023-04-14T06:40:17.491Z,65.10
2023-04-14T06:42:44.215Z,65.20
2023-04-14T06:45:11.402Z,65.20
2023-04-14T06:47:38.696Z,64.80
2023-04-14T06:50:06.209Z,65.40
2023-04-14T06:52:32.992Z,65.50
2023-04-14T06:54:59.784Z,65.40
2023-04-14T06:57:26.627Z,65.40
2023-04-14T06:59:53.391Z,65.00
2023-04-14T07:02:20.413Z,65.50
2023-04-14T07:04:47.214Z,65.60
2023-04-14T07:09:44.655Z,65.50
2023-04-14T07:12:16.481Z,66.50
2023-04-14T07:14:43.397Z,66.50
2023-04-14T07:17:10.271Z,66.10
2023-04-14T07:19:37.016Z,66.20
2023-04-14T07:22:03.800Z,66.30
2023-04-14T07:24:30.583Z,66.50
2023-04-14T07:26:57.356Z,67.30
2023-04-14T07:29:24.194Z,66.80
2023-04-14T07:31:51.742Z,66.90
2023-04-14T07:34:19.663Z,66.60
2023-04-14T07:36:46.581Z,66.60
2023-04-14T07:39:13.354Z,66.50
2023-04-14T07:41:46.390Z,66.20
2023-04-14T07:44:13.199Z,66.20
2023-04-14T07:46:40.175Z,66.00
2023-04-14T07:49:06.943Z,67.20
2023-04-14T07:51:33.669Z,66.70
2023-04-14T07:54:00.745Z,66.80
2023-04-14T07:56:27.689Z,66.60
2023-04-14T07:58:54.492Z,66.10
2023-04-14T08:01:21.275Z,66.90
2023-04-14T08:06:16.872Z,66.60
2023-04-14T08:11:10.901Z,67.40
2023-04-14T08:13:37.713Z,67.40
2023-04-14T08:16:04.668Z,67.30
2023-04-14T08:18:31.729Z,67.20
2023-04-14T08:20:58.452Z,68.00
2023-04-14T08:23:25.225Z,67.50
2023-04-14T08:25:51.999Z,68.00
2023-04-14T08:28:18.830Z,68.10
2023-04-14T08:30:45.606Z,68.20
2023-04-14T08:33:12.412Z,68.10
2023-04-14T08:35:42.430Z,68.40
2023-04-14T08:38:10.045Z,68.50
2023-04-14T08:40:40.266Z,68.80
2023-04-14T08:43:07.892Z,69.30
2023-04-14T08:45:35.662Z,69.30
2023-04-14T08:48:04.395Z,69.30
2023-04-14T08:50:46.736Z,69.10
2023-04-14T08:53:14.533Z,69.40
2023-04-14T08:55:42.735Z,69.40
2023-04-14T08:58:12.763Z,69.50
2023-04-14T09:00:40.316Z,69.60
2023-04-14T09:03:09.293Z,69.90
2023-04-14T09:05:37.373Z,69.80
2023-04-14T09:08:04.961Z,70.50
2023-04-14T09:10:32.517Z,70.50
2023-04-14T09:13:01.345Z,70.30
2023-04-14T09:15:29.196Z,71.00
2023-04-14T09:17:57.173Z,70.30
2023-04-14T09:20:35.878Z,70.30
2023-04-14T09:23:10.117Z,71.70
2023-04-14T09:25:40.010Z,71.80
2023-04-14T09:28:07.347Z,71.80
2023-04-14T09:30:34.561Z,72.50
2023-04-14T09:33:06.963Z,72.30
2023-04-14T09:35:49.775Z,72.60
2023-04-14T09:38:36.441Z,72.20
2023-04-14T09:41:06.118Z,73.60
2023-04-14T09:43:33.601Z,73.20
2023-04-14T09:46:09.505Z,73.20
2023-04-14T09:48:50.280Z,72.80
2023-04-14T09:51:17.120Z,73.70
2023-04-14T09:53:46.434Z,73.40
2023-04-14T09:56:16.007Z,73.80
2023-04-14T09:58:44.871Z,74.30
2023-04-14T10:01:17.954Z,74.90
2023-04-14T10:03:47.980Z,76.10
2023-04-14T10:06:20.100Z,75.60
2023-04-14T10:08:51.541Z,75.80
2023-04-14T10:11:35.533Z,75.80
2023-04-14T10:14:06.242Z,76.50
2023-04-14T10:16:34.335Z,75.40
2023-04-14T10:19:01.822Z,76.20
2023-04-14T10:21:29.267Z,77.30
2023-04-14T10:23:57.647Z,76.40
2023-04-14T10:26:24.954Z,76.50
2023-04-14T10:28:55.531Z,76.20
2023-04-14T10:31:40.344Z,76.60
2023-04-14T10:34:14.830Z,77.10
2023-04-14T10:36:43.632Z,77.20
2023-04-14T10:39:12.325Z,76.30
2023-04-14T10:41:48.840Z,76.90
2023-04-14T10:44:32.219Z,76.50
2023-04-14T10:47:02.237Z,77.40
2023-04-14T10:49:38.574Z,76.90
2023-04-14T10:52:06.619Z,76.90
2023-04-14T10:54:53.894Z,76.90
2023-04-14T10:57:26.693Z,78.50
2023-04-14T11:00:00.448Z,77.50
2023-04-14T11:02:32.447Z,77.90
2023-04-14T11:05:00.972Z,77.40
2023-04-14T11:07:31.365Z,77.20
2023-04-14T11:10:03.409Z,77.60
2023-04-14T11:12:31.400Z,78.20
2023-04-14T11:15:05.004Z,76.60
2023-04-14T11:17:33.955Z,77.60
2023-04-14T11:20:01.262Z,77.20
2023-04-14T11:22:45.939Z,77.80
2023-04-14T11:25:24.081Z,79.10
2023-04-14T11:27:52.216Z,78.70
2023-04-14T11:30:21.324Z,78.60
2023-04-14T11:32:59.643Z,78.70
2023-04-14T11:35:28.397Z,79.60
2023-04-14T11:37:56.776Z,79.00
2023-04-14T11:40:26.559Z,79.30
2023-04-14T11:42:59.103Z,79.30
2023-04-14T11:45:31.971Z,80.90
2023-04-14T11:48:07.293Z,81.00
2023-04-14T11:50:39.029Z,81.40
2023-04-14T11:53:14.179Z,81.40
2023-04-14T11:55:48.065Z,81.30
2023-04-14T11:58:21.484Z,81.70
2023-04-14T12:00:49.982Z,81.50
2023-04-14T12:03:18.019Z,81.40
2023-04-14T12:05:45.377Z,82.20
2023-04-14T12:08:12.715Z,81.50
2023-04-14T12:15:42.792Z,81.20
2023-04-14T12:18:15.809Z,81.70
2023-04-14T12:21:01.976Z,82.40
2023-04-14T12:23:28.946Z,81.90
2023-04-14T12:25:56.082Z,81.80
2023-04-14T12:28:30.049Z,81.90
2023-04-14T12:31:02.251Z,82.40
2023-04-14T12:33:31.391Z,82.70
2023-04-14T12:36:27.501Z,83.00
2023-04-14T12:39:09.486Z,82.90
2023-04-14T12:41:40.018Z,82.60
2023-04-14T12:44:20.921Z,83.40
2023-04-14T12:46:52.721Z,84.20
2023-04-14T12:49:38.591Z,83.20
2023-04-14T12:52:07.974Z,84.00
2023-04-14T12:54:53.871Z,84.60
2023-04-14T12:57:22.073Z,85.50
2023-04-14T12:59:49.227Z,85.50
2023-04-14T13:02:16.039Z,85.10
2023-04-14T13:04:43.666Z,85.40
2023-04-14T13:07:10.411Z,85.50
2023-04-14T13:09:37.288Z,86.20
2023-04-14T13:12:04.070Z,86.30
2023-04-14T13:14:30.822Z,86.30
2023-04-14T13:16:57.644Z,86.90
2023-04-14T13:19:24.434Z,87.00
2023-04-14T13:21:51.308Z,87.20
2023-04-14T13:24:18.061Z,86.90
2023-04-14T13:26:46.132Z,88.30
2023-04-14T13:29:15.895Z,87.00
2023-04-14T13:31:42.721Z,87.80
2023-04-14T13:34:11.087Z,87.70
2023-04-14T13:36:37.963Z,87.60
2023-04-14T13:39:04.851Z,87.90
2023-04-14T13:41:31.717Z,88.10
2023-04-14T13:43:58.557Z,88.10
2023-04-14T13:46:25.406Z,88.60
2023-04-14T13:48:52.438Z,88.50
2023-04-14T13:51:19.251Z,88.00
2023-04-14T13:53:47.342Z,88.60
2023-04-14T13:56:14.084Z,88.90
2023-04-14T13:58:41.691Z,89.00
2023-04-14T14:01:12.292Z,89.30
2023-04-14T14:03:41.915Z,89.50
2023-04-14T14:06:09.140Z,89.70
2023-04-14T14:08:39.091Z,89.60
2023-04-14T14:11:06.390Z,89.70
2023-04-14T14:13:35.981Z,89.70
2023-04-14T14:16:03.753Z,89.80
2023-04-14T14:18:30.734Z,89.70
2023-04-14T14:20:57.683Z,89.80
2023-04-14T14:23:26.238Z,89.90
2023-04-14T14:25:55.634Z,90.00
2023-04-14T14:28:22.550Z,90.00
2023-04-14T14:30:49.410Z,90.00
2023-04-14T14:33:16.269Z,90.00
2023-04-14T14:35:43.018Z,89.70
2023-04-14T14:38:09.853Z,89.30
2023-04-14T14:40:36.649Z,90.10
2023-04-14T14:43:03.728Z,90.30
2023-04-14T14:45:31.789Z,90.30
2023-04-14T14:47:59.865Z,90.30
2023-04-14T14:50:26.658Z,90.30
2023-04-14T14:52:56.063Z,90.30
2023-04-14T14:55:23.126Z,89.80
2023-04-14T14:57:51.033Z,90.30
2023-04-14T15:00:19.569Z,90.40
2023-04-14T15:02:46.631Z,90.40
2023-04-14T15:05:13.552Z,90.50
2023-04-14T15:07:40.595Z,90.50
2023-04-14T15:10:08.063Z,90.60
2023-04-14T15:12:34.856Z,90.60
2023-04-14T15:15:01.679Z,90.60
2023-04-14T15:17:28.558Z,90.60
2023-04-14T15:19:55.396Z,90.60
2023-04-14T15:22:22.488Z,90.60
2023-04-14T15:24:49.211Z,90.70
2023-04-14T15:27:15.940Z,90.70
2023-04-14T15:29:42.708Z,90.70
2023-04-14T15:32:09.532Z,90.80
2023-04-14T15:34:36.489Z,90.80
2023-04-14T15:37:03.273Z,90.80
2023-04-14T15:39:30.029Z,90.70
2023-04-14T15:41:57.019Z,90.60
2023-04-14T15:44:26.130Z,90.90
2023-04-14T15:46:53.564Z,91.10
2023-04-14T15:49:22.690Z,91.10
2023-04-14T15:51:50.542Z,91.20
2023-04-14T15:54:17.405Z,91.10
2023-04-14T15:56:44.218Z,90.90
2023-04-14T15:59:11.195Z,91.20
2023-04-14T16:01:37.963Z,91.30
2023-04-14T16:04:04.981Z,91.30
2023-04-14T16:06:33.060Z,91.00
2023-04-14T16:09:00.176Z,91.30
2023-04-14T16:11:27.183Z,91.40
2023-04-14T16:13:54.334Z,91.50
2023-04-14T16:16:21.381Z,91.40
2023-04-14T16:18:49.143Z,91.40
2023-04-14T16:21:16.270Z,91.30
2023-04-14T16:23:43.183Z,91.30
2023-04-14T16:26:10.003Z,91.40
2023-04-14T16:28:36.796Z,91.10
2023-04-14T16:31:03.672Z,91.40
2023-04-14T16:33:32.544Z,91.50
2023-04-14T16:36:04.749Z,91.50
2023-04-14T16:38:31.806Z,91.40
2023-04-14T16:41:00.113Z,91.60
2023-04-14T16:43:27.989Z,91.60
2023-04-14T16:46:04.410Z,91.60
2023-04-14T16:48:32.481Z,91.60
2023-04-14T16:51:10.543Z,91.40
2023-04-14T16:53:38.807Z,91.80
2023-04-14T16:56:10.072Z,91.90
2023-04-14T16:58:38.123Z,91.70
2023-04-14T17:01:06.218Z,91.70
2023-04-14T17:03:33.877Z,91.80
2023-04-14T17:06:00.920Z,91.80
2023-04-14T17:08:27.763Z,91.80
2023-04-14T17:10:54.631Z,91.90
2023-04-14T17:13:23.138Z,92.00
2023-04-14T17:15:58.763Z,92.00
2023-04-14T17:18:33.627Z,91.90
2023-04-14T17:21:00.487Z,91.90
2023-04-14T17:23:27.700Z,92.00
2023-04-14T17:25:56.981Z,92.00
2023-04-14T17:28:24.086Z,92.10
2023-04-14T17:30:51.077Z,92.10
2023-04-14T17:33:19.930Z,92.10
2023-04-14T17:35:46.909Z,92.00
2023-04-14T17:38:13.929Z,91.70
2023-04-14T17:40:40.711Z,92.00
2023-04-14T17:43:07.812Z,92.00
2023-04-14T17:45:35.127Z,92.10
2023-04-14T17:48:02.093Z,92.10
2023-04-14T17:50:29.468Z,92.10
2023-04-14T17:52:58.012Z,92.10
2023-04-14T17:55:24.765Z,92.10
2023-04-14T17:57:51.637Z,92.10
2023-04-14T18:00:19.966Z,92.10
2023-04-14T18:02:47.072Z,92.10
2023-04-14T18:05:13.929Z,92.20
2023-04-14T18:07:42.298Z,92.10
2023-04-14T18:10:09.634Z,92.10
2023-04-14T18:12:36.521Z,92.10
2023-04-14T18:15:04.879Z,92.10
2023-04-14T18:17:32.810Z,92.10
2023-04-14T18:19:59.607Z,92.00
2023-04-14T18:22:27.432Z,92.10
2023-04-14T18:24:54.259Z,92.10
2023-04-14T18:29:52.838Z,92.20
2023-04-14T18:32:19.812Z,92.20
2023-04-14T18:34:46.780Z,92.20
2023-04-14T18:37:15.516Z,92.20
2023-04-14T18:39:42.906Z,92.10
2023-04-14T18:42:10.237Z,92.30
2023-04-14T18:44:37.020Z,92.30
2023-04-14T18:47:03.907Z,92.30
2023-04-14T18:49:31.114Z,92.30
2023-04-14T18:51:57.896Z,92.30
2023-04-14T18:54:24.693Z,92.40
2023-04-14T18:56:51.709Z,92.40
2023-04-14T18:59:18.657Z,92.40
2023-04-14T19:01:46.278Z,92.20
2023-04-14T19:04:13.131Z,92.50
2023-04-14T19:06:40.475Z,92.50
2023-04-14T19:09:07.356Z,92.50
2023-04-14T19:11:35.994Z,92.60
2023-04-14T19:14:04.742Z,92.60
2023-04-14T19:16:32.700Z,92.60
2023-04-14T19:18:59.724Z,92.60
2023-04-14T19:21:26.797Z,92.60
2023-04-14T19:23:56.788Z,92.60
2023-04-14T19:26:24.272Z,92.60
2023-04-14T19:28:52.946Z,92.60
2023-04-14T19:31:21.400Z,92.60
2023-04-14T19:33:49.076Z,92.60
2023-04-14T19:36:17.546Z,92.70
2023-04-14T19:38:45.453Z,92.70
2023-04-14T19:41:12.528Z,92.80
2023-04-14T19:43:39.332Z,92.90
2023-04-14T19:46:07.435Z,92.80
2023-04-14T19:48:34.651Z,92.90
2023-04-14T19:51:02.362Z,93.10
2023-04-14T19:53:29.855Z,93.30
2023-04-14T19:55:58.457Z,93.10
2023-04-14T19:58:27.629Z,93.40
2023-04-14T20:00:58.892Z,93.50
2023-04-14T20:03:26.973Z,93.50
2023-04-14T20:05:56.772Z,93.50
2023-04-14T20:08:26.259Z,93.50
2023-04-14T20:10:54.492Z,93.60
2023-04-14T20:13:23.596Z,93.80
2023-04-14T20:15:53.890Z,93.60
2023-04-14T20:18:22.432Z,93.60
2023-04-14T20:20:49.643Z,93.70
2023-04-14T20:23:17.026Z,93.70
2023-04-14T20:25:44.982Z,93.70
2023-04-14T20:28:11.878Z,93.70
2023-04-14T20:30:40.055Z,93.70
2023-04-14T20:33:06.940Z,93.80
2023-04-14T20:35:36.895Z,93.60
2023-04-14T20:38:05.184Z,93.60
2023-04-14T20:40:32.626Z,93.50
2023-04-14T20:43:00.026Z,93.50
2023-04-14T20:45:26.899Z,93.50
2023-04-14T20:47:54.026Z,93.20
2023-04-14T20:50:21.162Z,93.50
2023-04-14T20:52:48.731Z,93.40
2023-04-14T20:55:15.701Z,93.50
2023-04-14T20:57:42.808Z,93.60
2023-04-14T21:00:12.031Z,93.70
2023-04-14T21:02:39.036Z,93.70
2023-04-14T21:05:06.416Z,93.70
2023-04-14T21:07:35.594Z,93.70
2023-04-14T21:10:05.873Z,93.80
2023-04-14T21:12:33.793Z,93.60
2023-04-14T21:15:40.366Z,93.70
2023-04-14T21:17:52.553Z,93.80
2023-04-14T21:20:19.373Z,94.10
2023-04-14T21:22:46.184Z,93.80
2023-04-14T21:25:12.989Z,93.70
2023-04-14T21:27:39.910Z,93.70
2023-04-14T21:30:09.175Z,93.80
2023-04-14T21:32:36.170Z,93.90
2023-04-14T21:35:03.687Z,93.80
2023-04-14T21:37:30.628Z,93.70
2023-04-14T21:39:59.083Z,93.80
2023-04-14T21:42:26.588Z,93.80
2023-04-14T21:44:54.248Z,93.90
2023-04-14T21:47:21.152Z,93.80
2023-04-14T21:49:47.939Z,93.70
2023-04-14T21:52:14.954Z,93.80
2023-04-14T21:54:44.207Z,93.70
2023-04-14T21:57:11.551Z,93.70
2023-04-14T21:59:38.357Z,93.70
2023-04-14T22:02:05.599Z,93.60
2023-04-14T22:04:36.434Z,94.00
2023-04-14T22:07:05.127Z,93.70
2023-04-14T22:09:33.539Z,93.60
2023-04-14T22:12:00.580Z,93.70
2023-04-14T22:14:27.706Z,93.60
2023-04-14T22:16:55.114Z,93.60
2023-04-14T22:19:22.250Z,93.60
2023-04-14T22:21:49.735Z,93.60
2023-04-14T22:24:16.533Z,93.60
2023-04-14T22:26:43.284Z,93.70
2023-04-14T22:29:11.532Z,93.30
2023-04-14T22:31:38.488Z,93.60
2023-04-14T22:34:05.330Z,93.70
2023-04-14T22:36:32.293Z,93.70
2023-04-14T22:39:00.317Z,93.60
2023-04-14T22:41:27.177Z,93.80
2023-04-14T22:43:54.008Z,94.00
2023-04-14T22:46:21.059Z,93.70
2023-04-14T22:48:47.921Z,93.70
2023-04-14T22:51:14.825Z,93.80
2023-04-14T22:53:41.635Z,93.80
2023-04-14T22:56:08.682Z,93.80
2023-04-14T22:58:39.305Z,93.80
2023-04-14T23:01:19.246Z,93.90
2023-04-14T23:03:52.173Z,93.80
2023-04-14T23:06:20.315Z,93.80
2023-04-14T23:08:51.235Z,93.80
2023-04-14T23:11:21.023Z,93.80
2023-04-14T23:13:49.821Z,93.80
2023-04-14T23:16:20.241Z,93.80
2023-04-14T23:18:52.318Z,93.60
2023-04-14T23:21:22.508Z,93.80
2023-04-14T23:23:50.515Z,93.90
2023-04-14T23:26:19.756Z,93.90
2023-04-14T23:28:46.750Z,93.60
2023-04-14T23:31:13.945Z,93.90
2023-04-14T23:33:41.072Z,93.90
2023-04-14T23:36:08.209Z,93.90
2023-04-14T23:38:35.343Z,93.70
2023-04-14T23:41:03.209Z,94.00
2023-04-14T23:43:30.030Z,93.90
2023-04-14T23:45:56.937Z,94.00
2023-04-14T23:51:00.510Z,93.80
2023-04-14T23:53:37.812Z,94.00
2023-04-14T23:56:04.980Z,94.00
2023-04-14T23:58:32.506Z,94.00
